sensor_id;sensor_type;location;lat;lon;timestamp;temperature;humidity
70972;SHT30;58632;51.718;19.446;2022-07-03T10:19:23;28.03;36.72
70972;SHT30;58632;51.718;19.446;2022-07-03T10:21:56;28.03;36.08
70972;SHT30;58632;51.718;19.446;2022-07-03T10:24:27;28.11;36.27
70972;SHT30;58632;51.718;19.446;2022-07-03T10:26:56;28.25;36.91
70972;SHT30;58632;51.718;19.446;2022-07-03T10:29:27;28.25;37.18
70972;SHT30;58632;51.718;19.446;2022-07-03T10:31:53;28.14;37.81
70972;SHT30;58632;51.718;19.446;2022-07-03T10:34:22;28.10;35.25
70972;SHT30;58632;51.718;19.446;2022-07-03T10:36:54;28.01;35.95
70972;SHT30;58632;51.718;19.446;2022-07-03T10:39:48;28.03;35.99
70972;SHT30;58632;51.718;19.446;2022-07-03T10:42:16;28.08;36.41
70972;SHT30;58632;51.718;19.446;2022-07-03T10:45:07;28.13;36.50
70972;SHT30;58632;51.718;19.446;2022-07-03T10:47:47;28.25;35.21
70972;SHT30;58632;51.718;19.446;2022-07-03T10:50:22;28.37;37.64
70972;SHT30;58632;51.718;19.446;2022-07-03T10:52:50;28.48;37.20
70972;SHT30;58632;51.718;19.446;2022-07-03T10:55:18;28.55;36.76
70972;SHT30;58632;51.718;19.446;2022-07-03T10:58:07;28.52;36.58
70972;SHT30;58632;51.718;19.446;2022-07-03T11:00:52;28.59;37.78
70972;SHT30;58632;51.718;19.446;2022-07-03T11:03:57;28.78;36.98
70972;SHT30;58632;51.718;19.446;2022-07-03T11:09:15;29.07;36.09
70972;SHT30;58632;51.718;19.446;2022-07-03T11:11:46;29.05;35.67
70972;SHT30;58632;51.718;19.446;2022-07-03T11:14:27;28.90;37.12
70972;SHT30;58632;51.718;19.446;2022-07-03T11:17:20;28.79;36.11
70972;SHT30;58632;51.718;19.446;2022-07-03T11:19:49;28.61;33.88
70972;SHT30;58632;51.718;19.446;2022-07-03T11:22:55;28.65;35.47
70972;SHT30;58632;51.718;19.446;2022-07-03T11:25:24;-128.00;-1.00
70972;SHT30;58632;51.718;19.446;2022-07-03T11:27:52;-128.00;-1.00
70972;SHT30;58632;51.718;19.446;2022-07-03T11:30:20;-128.00;-1.00
70972;SHT30;58632;51.718;19.446;2022-07-03T11:32:52;-128.00;-1.00
70972;SHT30;58632;51.718;19.446;2022-07-03T11:35:45;-128.00;-1.00
70972;SHT30;58632;51.718;19.446;2022-07-03T11:38:22;-128.00;-1.00
70972;SHT30;58632;51.718;19.446;2022-07-03T11:40:50;-128.00;-1.00
70972;SHT30;58632;51.718;19.446;2022-07-03T11:43:18;-128.00;-1.00
70972;SHT30;58632;51.718;19.446;2022-07-03T11:45:48;-128.00;-1.00
70972;SHT30;58632;51.718;19.446;2022-07-03T11:48:20;-128.00;-1.00
70972;SHT30;58632;51.718;19.446;2022-07-03T11:50:48;-128.00;-1.00
70972;SHT30;58632;51.718;19.446;2022-07-03T11:53:30;-128.00;-1.00
70972;SHT30;58632;51.718;19.446;2022-07-03T11:56:01;-128.00;-1.00
70972;SHT30;58632;51.718;19.446;2022-07-03T11:58:48;-128.00;-1.00
70972;SHT30;58632;51.718;19.446;2022-07-03T12:04:17;-128.00;-1.00
70972;SHT30;58632;51.718;19.446;2022-07-03T12:12:08;-128.00;-1.00
70972;SHT30;58632;51.718;19.446;2022-07-03T12:14:51;-128.00;-1.00
70972;SHT30;58632;51.718;19.446;2022-07-03T12:17:21;-128.00;-1.00
70972;SHT30;58632;51.718;19.446;2022-07-03T12:20:01;-128.00;-1.00
70972;SHT30;58632;51.718;19.446;2022-07-03T12:22:32;-128.00;-1.00
70972;SHT30;58632;51.718;19.446;2022-07-03T12:25:09;-128.00;-1.00
70972;SHT30;58632;51.718;19.446;2022-07-03T12:27:43;-128.00;-1.00
70972;SHT30;58632;51.718;19.446;2022-07-03T12:30:18;-128.00;-1.00
70972;SHT30;58632;51.718;19.446;2022-07-03T12:32:46;-128.00;-1.00
70972;SHT30;58632;51.718;19.446;2022-07-03T12:35:22;-128.00;-1.00
70972;SHT30;58632;51.718;19.446;2022-07-03T12:37:50;-128.00;-1.00
70972;SHT30;58632;51.718;19.446;2022-07-03T12:40:17;-128.00;-1.00
70972;SHT30;58632;51.718;19.446;2022-07-03T12:42:54;-128.00;-1.00
70972;SHT30;58632;51.718;19.446;2022-07-03T12:45:25;-128.00;-1.00
70972;SHT30;58632;51.718;19.446;2022-07-03T12:48:05;-128.00;-1.00
70972;SHT30;58632;51.718;19.446;2022-07-03T12:50:51;-128.00;-1.00
70972;SHT30;58632;51.718;19.446;2022-07-03T12:53:31;-128.00;-1.00
70972;SHT30;58632;51.718;19.446;2022-07-03T12:56:04;-128.00;-1.00
70972;SHT30;58632;51.718;19.446;2022-07-03T12:58:37;-128.00;-1.00
70972;SHT30;58632;51.718;19.446;2022-07-03T13:01:33;-128.00;-1.00
70972;SHT30;58632;51.718;19.446;2022-07-03T13:04:04;-128.00;-1.00
70972;SHT30;58632;51.718;19.446;2022-07-03T13:06:31;-128.00;-1.00
70972;SHT30;58632;51.718;19.446;2022-07-03T13:09:02;-128.00;-1.00
70972;SHT30;58632;51.718;19.446;2022-07-03T13:11:38;-128.00;-1.00
70972;SHT30;58632;51.718;19.446;2022-07-03T13:14:14;-128.00;-1.00
70972;SHT30;58632;51.718;19.446;2022-07-03T13:16:50;-128.00;-1.00
70972;SHT30;58632;51.718;19.446;2022-07-03T13:19:21;-128.00;-1.00
70972;SHT30;58632;51.718;19.446;2022-07-03T13:21:50;-128.00;-1.00
70972;SHT30;58632;51.718;19.446;2022-07-03T13:24:19;-128.00;-1.00
70972;SHT30;58632;51.718;19.446;2022-07-03T13:26:49;-128.00;-1.00
70972;SHT30;58632;51.718;19.446;2022-07-03T13:29:17;-128.00;-1.00
70972;SHT30;58632;51.718;19.446;2022-07-03T13:31:44;-128.00;-1.00
70972;SHT30;58632;51.718;19.446;2022-07-03T13:34:12;-128.00;-1.00
70972;SHT30;58632;51.718;19.446;2022-07-03T13:36:39;-128.00;-1.00
70972;SHT30;58632;51.718;19.446;2022-07-03T13:39:06;-128.00;-1.00
70972;SHT30;58632;51.718;19.446;2022-07-03T13:41:35;-128.00;-1.00
70972;SHT30;58632;51.718;19.446;2022-07-03T13:44:03;-128.00;-1.00
70972;SHT30;58632;51.718;19.446;2022-07-03T13:46:31;-128.00;-1.00
70972;SHT30;58632;51.718;19.446;2022-07-03T13:48:58;-128.00;-1.00
70972;SHT30;58632;51.718;19.446;2022-07-03T13:51:25;-128.00;-1.00
70972;SHT30;58632;51.718;19.446;2022-07-03T13:53:52;-128.00;-1.00
70972;SHT30;58632;51.718;19.446;2022-07-03T13:56:20;-128.00;-1.00
70972;SHT30;58632;51.718;19.446;2022-07-03T13:58:47;-128.00;-1.00
70972;SHT30;58632;51.718;19.446;2022-07-03T14:01:14;-128.00;-1.00
70972;SHT30;58632;51.718;19.446;2022-07-03T14:03:41;-128.00;-1.00
70972;SHT30;58632;51.718;19.446;2022-07-03T14:06:09;-128.00;-1.00
70972;SHT30;58632;51.718;19.446;2022-07-03T14:08:36;-128.00;-1.00
70972;SHT30;58632;51.718;19.446;2022-07-03T14:11:03;-128.00;-1.00
70972;SHT30;58632;51.718;19.446;2022-07-03T14:13:30;-128.00;-1.00
70972;SHT30;58632;51.718;19.446;2022-07-03T14:16:00;-128.00;-1.00
70972;SHT30;58632;51.718;19.446;2022-07-03T14:18:27;-128.00;-1.00
70972;SHT30;58632;51.718;19.446;2022-07-03T14:20:54;-128.00;-1.00
70972;SHT30;58632;51.718;19.446;2022-07-03T14:23:22;-128.00;-1.00
70972;SHT30;58632;51.718;19.446;2022-07-03T14:25:49;-128.00;-1.00
70972;SHT30;58632;51.718;19.446;2022-07-03T14:28:16;-128.00;-1.00
70972;SHT30;58632;51.718;19.446;2022-07-03T14:31:02;-128.00;-1.00
70972;SHT30;58632;51.718;19.446;2022-07-03T14:33:48;-128.00;-1.00
70972;SHT30;58632;51.718;19.446;2022-07-03T14:36:15;-128.00;-1.00
70972;SHT30;58632;51.718;19.446;2022-07-03T14:38:43;-128.00;-1.00
70972;SHT30;58632;51.718;19.446;2022-07-03T14:41:11;-128.00;-1.00
70972;SHT30;58632;51.718;19.446;2022-07-03T14:43:38;-128.00;-1.00
70972;SHT30;58632;51.718;19.446;2022-07-03T14:46:05;-128.00;-1.00
70972;SHT30;58632;51.718;19.446;2022-07-03T14:48:33;-128.00;-1.00
70972;SHT30;58632;51.718;19.446;2022-07-03T14:51:00;-128.00;-1.00
70972;SHT30;58632;51.718;19.446;2022-07-03T14:53:27;-128.00;-1.00
70972;SHT30;58632;51.718;19.446;2022-07-03T14:55:55;-128.00;-1.00
70972;SHT30;58632;51.718;19.446;2022-07-03T14:58:29;-128.00;-1.00
70972;SHT30;58632;51.718;19.446;2022-07-03T15:01:00;-128.00;-1.00
70972;SHT30;58632;51.718;19.446;2022-07-03T15:03:34;-128.00;-1.00
70972;SHT30;58632;51.718;19.446;2022-07-03T15:06:08;-128.00;-1.00
70972;SHT30;58632;51.718;19.446;2022-07-03T15:08:58;-128.00;-1.00
70972;SHT30;58632;51.718;19.446;2022-07-03T15:14:34;-128.00;-1.00
70972;SHT30;58632;51.718;19.446;2022-07-03T15:17:04;-128.00;-1.00
70972;SHT30;58632;51.718;19.446;2022-07-03T15:19:35;-128.00;-1.00
70972;SHT30;58632;51.718;19.446;2022-07-03T15:22:04;-128.00;-1.00
70972;SHT30;58632;51.718;19.446;2022-07-03T15:24:34;-128.00;-1.00
70972;SHT30;58632;51.718;19.446;2022-07-03T15:27:05;-128.00;-1.00
70972;SHT30;58632;51.718;19.446;2022-07-03T15:29:37;-128.00;-1.00
70972;SHT30;58632;51.718;19.446;2022-07-03T15:32:07;-128.00;-1.00
70972;SHT30;58632;51.718;19.446;2022-07-03T15:34:37;-128.00;-1.00
70972;SHT30;58632;51.718;19.446;2022-07-03T15:40:24;-128.00;-1.00
70972;SHT30;58632;51.718;19.446;2022-07-03T15:46:02;-128.00;-1.00
70972;SHT30;58632;51.718;19.446;2022-07-03T15:51:21;-128.00;-1.00
70972;SHT30;58632;51.718;19.446;2022-07-03T15:53:59;-128.00;-1.00
70972;SHT30;58632;51.718;19.446;2022-07-03T15:56:34;-128.00;-1.00
70972;SHT30;58632;51.718;19.446;2022-07-03T15:59:06;-128.00;-1.00
70972;SHT30;58632;51.718;19.446;2022-07-03T16:01:46;-128.00;-1.00
70972;SHT30;58632;51.718;19.446;2022-07-03T16:04:47;-128.00;-1.00
70972;SHT30;58632;51.718;19.446;2022-07-03T16:07:12;-128.00;-1.00
70972;SHT30;58632;51.718;19.446;2022-07-03T16:09:43;-128.00;-1.00
70972;SHT30;58632;51.718;19.446;2022-07-03T16:12:11;-128.00;-1.00
70972;SHT30;58632;51.718;19.446;2022-07-03T16:14:51;-128.00;-1.00
70972;SHT30;58632;51.718;19.446;2022-07-03T16:17:21;-128.00;-1.00
70972;SHT30;58632;51.718;19.446;2022-07-03T16:19:50;-128.00;-1.00
70972;SHT30;58632;51.718;19.446;2022-07-03T16:22:19;-128.00;-1.00
70972;SHT30;58632;51.718;19.446;2022-07-03T16:24:47;-128.00;-1.00
70972;SHT30;58632;51.718;19.446;2022-07-03T16:27:17;-128.00;-1.00
70972;SHT30;58632;51.718;19.446;2022-07-03T16:29:47;-128.00;-1.00
70972;SHT30;58632;51.718;19.446;2022-07-03T16:32:19;-128.00;-1.00
70972;SHT30;58632;51.718;19.446;2022-07-03T16:35:46;-128.00;-1.00
70972;SHT30;58632;51.718;19.446;2022-07-03T16:37:47;-128.00;-1.00
70972;SHT30;58632;51.718;19.446;2022-07-03T16:40:17;-128.00;-1.00
70972;SHT30;58632;51.718;19.446;2022-07-03T16:42:46;-128.00;-1.00
70972;SHT30;58632;51.718;19.446;2022-07-03T16:45:14;-128.00;-1.00
70972;SHT30;58632;51.718;19.446;2022-07-03T16:47:44;-128.00;-1.00
70972;SHT30;58632;51.718;19.446;2022-07-03T16:50:19;-128.00;-1.00
70972;SHT30;58632;51.718;19.446;2022-07-03T16:52:54;-128.00;-1.00
70972;SHT30;58632;51.718;19.446;2022-07-03T16:55:22;-128.00;-1.00
70972;SHT30;58632;51.718;19.446;2022-07-03T16:57:54;-128.00;-1.00
70972;SHT30;58632;51.718;19.446;2022-07-03T17:00:25;-128.00;-1.00
70972;SHT30;58632;51.718;19.446;2022-07-03T17:02:56;-128.00;-1.00
70972;SHT30;58632;51.718;19.446;2022-07-03T17:05:26;-128.00;-1.00
70972;SHT30;58632;51.718;19.446;2022-07-03T17:08:07;-128.00;-1.00
70972;SHT30;58632;51.718;19.446;2022-07-03T17:10:37;-128.00;-1.00
70972;SHT30;58632;51.718;19.446;2022-07-03T17:13:04;-128.00;-1.00
70972;SHT30;58632;51.718;19.446;2022-07-03T17:15:31;-128.00;-1.00
70972;SHT30;58632;51.718;19.446;2022-07-03T17:18:05;-128.00;-1.00
70972;SHT30;58632;51.718;19.446;2022-07-03T17:20:36;-128.00;-1.00
70972;SHT30;58632;51.718;19.446;2022-07-03T17:23:15;-128.00;-1.00
70972;SHT30;58632;51.718;19.446;2022-07-03T17:25:49;-128.00;-1.00
70972;SHT30;58632;51.718;19.446;2022-07-03T17:28:15;-128.00;-1.00
70972;SHT30;58632;51.718;19.446;2022-07-03T17:30:55;-128.00;-1.00
70972;SHT30;58632;51.718;19.446;2022-07-03T17:33:18;-128.00;-1.00
70972;SHT30;58632;51.718;19.446;2022-07-03T17:35:50;-128.00;-1.00
70972;SHT30;58632;51.718;19.446;2022-07-03T17:38:21;-128.00;-1.00
70972;SHT30;58632;51.718;19.446;2022-07-03T17:40:49;-128.00;-1.00
70972;SHT30;58632;51.718;19.446;2022-07-03T17:43:20;-128.00;-1.00
70972;SHT30;58632;51.718;19.446;2022-07-03T17:45:48;-128.00;-1.00
70972;SHT30;58632;51.718;19.446;2022-07-03T17:48:16;-128.00;-1.00
70972;SHT30;58632;51.718;19.446;2022-07-03T17:50:44;-128.00;-1.00
70972;SHT30;58632;51.718;19.446;2022-07-03T17:53:15;-128.00;-1.00
70972;SHT30;58632;51.718;19.446;2022-07-03T17:55:43;-128.00;-1.00
70972;SHT30;58632;51.718;19.446;2022-07-03T17:58:14;-128.00;-1.00
70972;SHT30;58632;51.718;19.446;2022-07-03T18:00:42;-128.00;-1.00
70972;SHT30;58632;51.718;19.446;2022-07-03T18:03:10;-128.00;-1.00
70972;SHT30;58632;51.718;19.446;2022-07-03T18:05:45;-128.00;-1.00
70972;SHT30;58632;51.718;19.446;2022-07-03T18:08:27;-128.00;-1.00
70972;SHT30;58632;51.718;19.446;2022-07-03T18:13:54;-128.00;-1.00
70972;SHT30;58632;51.718;19.446;2022-07-03T18:16:20;-128.00;-1.00
70972;SHT30;58632;51.718;19.446;2022-07-03T18:18:56;-128.00;-1.00
70972;SHT30;58632;51.718;19.446;2022-07-03T18:21:27;-128.00;-1.00
70972;SHT30;58632;51.718;19.446;2022-07-03T18:23:55;-128.00;-1.00
70972;SHT30;58632;51.718;19.446;2022-07-03T18:26:40;-128.00;-1.00
70972;SHT30;58632;51.718;19.446;2022-07-03T18:29:14;-128.00;-1.00
70972;SHT30;58632;51.718;19.446;2022-07-03T18:31:45;-128.00;-1.00
70972;SHT30;58632;51.718;19.446;2022-07-03T18:34:17;-128.00;-1.00
70972;SHT30;58632;51.718;19.446;2022-07-03T18:36:47;-128.00;-1.00
70972;SHT30;58632;51.718;19.446;2022-07-03T18:39:16;-128.00;-1.00
70972;SHT30;58632;51.718;19.446;2022-07-03T18:41:44;-128.00;-1.00
70972;SHT30;58632;51.718;19.446;2022-07-03T18:44:12;-128.00;-1.00
70972;SHT30;58632;51.718;19.446;2022-07-03T18:46:40;-128.00;-1.00
70972;SHT30;58632;51.718;19.446;2022-07-03T18:49:08;-128.00;-1.00
70972;SHT30;58632;51.718;19.446;2022-07-03T18:51:48;-128.00;-1.00
70972;SHT30;58632;51.718;19.446;2022-07-03T19:00:09;-128.00;-1.00
70972;SHT30;58632;51.718;19.446;2022-07-03T19:05:57;-128.00;-1.00
70972;SHT30;58632;51.718;19.446;2022-07-03T19:08:38;-128.00;-1.00
70972;SHT30;58632;51.718;19.446;2022-07-03T19:11:11;-128.00;-1.00
70972;SHT30;58632;51.718;19.446;2022-07-03T19:14:05;-128.00;-1.00
70972;SHT30;58632;51.718;19.446;2022-07-03T19:16:40;-128.00;-1.00
70972;SHT30;58632;51.718;19.446;2022-07-03T19:19:10;-128.00;-1.00
70972;SHT30;58632;51.718;19.446;2022-07-03T19:21:42;-128.00;-1.00
70972;SHT30;58632;51.718;19.446;2022-07-03T19:24:11;-128.00;-1.00
70972;SHT30;58632;51.718;19.446;2022-07-03T19:26:43;-128.00;-1.00
70972;SHT30;58632;51.718;19.446;2022-07-03T19:29:11;-128.00;-1.00
70972;SHT30;58632;51.718;19.446;2022-07-03T19:31:38;-128.00;-1.00
70972;SHT30;58632;51.718;19.446;2022-07-03T19:34:05;-128.00;-1.00
70972;SHT30;58632;51.718;19.446;2022-07-03T19:36:33;-128.00;-1.00
70972;SHT30;58632;51.718;19.446;2022-07-03T19:39:00;-128.00;-1.00
70972;SHT30;58632;51.718;19.446;2022-07-03T19:41:28;-128.00;-1.00
70972;SHT30;58632;51.718;19.446;2022-07-03T19:43:56;-128.00;-1.00
70972;SHT30;58632;51.718;19.446;2022-07-03T19:46:24;-128.00;-1.00
70972;SHT30;58632;51.718;19.446;2022-07-03T19:48:51;-128.00;-1.00
70972;SHT30;58632;51.718;19.446;2022-07-03T19:51:18;-128.00;-1.00
70972;SHT30;58632;51.718;19.446;2022-07-03T19:53:46;-128.00;-1.00
70972;SHT30;58632;51.718;19.446;2022-07-03T19:56:13;-128.00;-1.00
70972;SHT30;58632;51.718;19.446;2022-07-03T19:59:18;-128.00;-1.00
70972;SHT30;58632;51.718;19.446;2022-07-03T20:01:46;-128.00;-1.00
70972;SHT30;58632;51.718;19.446;2022-07-03T20:04:14;-128.00;-1.00
70972;SHT30;58632;51.718;19.446;2022-07-03T20:06:41;-128.00;-1.00
70972;SHT30;58632;51.718;19.446;2022-07-03T20:09:09;-128.00;-1.00
70972;SHT30;58632;51.718;19.446;2022-07-03T20:11:37;-128.00;-1.00
70972;SHT30;58632;51.718;19.446;2022-07-03T20:14:04;-128.00;-1.00
70972;SHT30;58632;51.718;19.446;2022-07-03T20:16:31;-128.00;-1.00
70972;SHT30;58632;51.718;19.446;2022-07-03T20:18:59;-128.00;-1.00
70972;SHT30;58632;51.718;19.446;2022-07-03T20:21:26;-128.00;-1.00
70972;SHT30;58632;51.718;19.446;2022-07-03T20:23:53;-128.00;-1.00
70972;SHT30;58632;51.718;19.446;2022-07-03T20:26:39;-128.00;-1.00
70972;SHT30;58632;51.718;19.446;2022-07-03T20:29:08;-128.00;-1.00
70972;SHT30;58632;51.718;19.446;2022-07-03T20:31:36;-128.00;-1.00
70972;SHT30;58632;51.718;19.446;2022-07-03T20:34:03;-128.00;-1.00
70972;SHT30;58632;51.718;19.446;2022-07-03T20:36:31;-128.00;-1.00
70972;SHT30;58632;51.718;19.446;2022-07-03T20:38:58;-128.00;-1.00
70972;SHT30;58632;51.718;19.446;2022-07-03T20:41:25;-128.00;-1.00
70972;SHT30;58632;51.718;19.446;2022-07-03T20:43:52;-128.00;-1.00
70972;SHT30;58632;51.718;19.446;2022-07-03T20:46:19;-128.00;-1.00
70972;SHT30;58632;51.718;19.446;2022-07-03T20:48:46;-128.00;-1.00
70972;SHT30;58632;51.718;19.446;2022-07-03T20:51:14;-128.00;-1.00
70972;SHT30;58632;51.718;19.446;2022-07-03T20:53:43;-128.00;-1.00
70972;SHT30;58632;51.718;19.446;2022-07-03T20:56:17;-128.00;-1.00
70972;SHT30;58632;51.718;19.446;2022-07-03T20:58:48;-128.00;-1.00
70972;SHT30;58632;51.718;19.446;2022-07-03T21:01:16;-128.00;-1.00
70972;SHT30;58632;51.718;19.446;2022-07-03T21:03:43;-128.00;-1.00
70972;SHT30;58632;51.718;19.446;2022-07-03T21:06:10;-128.00;-1.00
70972;SHT30;58632;51.718;19.446;2022-07-03T21:08:56;-128.00;-1.00
70972;SHT30;58632;51.718;19.446;2022-07-03T21:11:26;-128.00;-1.00
70972;SHT30;58632;51.718;19.446;2022-07-03T21:14:07;-128.00;-1.00
70972;SHT30;58632;51.718;19.446;2022-07-03T21:16:37;-128.00;-1.00
70972;SHT30;58632;51.718;19.446;2022-07-03T21:19:08;-128.00;-1.00
70972;SHT30;58632;51.718;19.446;2022-07-03T21:21:37;-128.00;-1.00
70972;SHT30;58632;51.718;19.446;2022-07-03T21:24:06;-128.00;-1.00
70972;SHT30;58632;51.718;19.446;2022-07-03T21:26:35;-128.00;-1.00
70972;SHT30;58632;51.718;19.446;2022-07-03T21:29:03;-128.00;-1.00
70972;SHT30;58632;51.718;19.446;2022-07-03T21:31:30;-128.00;-1.00
70972;SHT30;58632;51.718;19.446;2022-07-03T21:33:57;-128.00;-1.00
70972;SHT30;58632;51.718;19.446;2022-07-03T21:36:24;-128.00;-1.00
70972;SHT30;58632;51.718;19.446;2022-07-03T21:38:52;-128.00;-1.00
70972;SHT30;58632;51.718;19.446;2022-07-03T21:41:19;-128.00;-1.00
70972;SHT30;58632;51.718;19.446;2022-07-03T21:43:47;-128.00;-1.00
70972;SHT30;58632;51.718;19.446;2022-07-03T21:46:14;-128.00;-1.00
70972;SHT30;58632;51.718;19.446;2022-07-03T21:48:42;-128.00;-1.00
70972;SHT30;58632;51.718;19.446;2022-07-03T21:51:09;-128.00;-1.00
70972;SHT30;58632;51.718;19.446;2022-07-03T21:53:37;-128.00;-1.00
70972;SHT30;58632;51.718;19.446;2022-07-03T21:56:05;-128.00;-1.00
70972;SHT30;58632;51.718;19.446;2022-07-03T21:58:32;-128.00;-1.00
70972;SHT30;58632;51.718;19.446;2022-07-03T22:00:59;-128.00;-1.00
70972;SHT30;58632;51.718;19.446;2022-07-03T22:03:27;-128.00;-1.00
70972;SHT30;58632;51.718;19.446;2022-07-03T22:05:54;-128.00;-1.00
70972;SHT30;58632;51.718;19.446;2022-07-03T22:08:22;-128.00;-1.00
70972;SHT30;58632;51.718;19.446;2022-07-03T22:10:50;-128.00;-1.00
70972;SHT30;58632;51.718;19.446;2022-07-03T22:13:20;-128.00;-1.00
70972;SHT30;58632;51.718;19.446;2022-07-03T22:15:48;-128.00;-1.00
70972;SHT30;58632;51.718;19.446;2022-07-03T22:18:16;-128.00;-1.00
70972;SHT30;58632;51.718;19.446;2022-07-03T22:20:43;-128.00;-1.00
70972;SHT30;58632;51.718;19.446;2022-07-03T22:23:12;-128.00;-1.00
70972;SHT30;58632;51.718;19.446;2022-07-03T22:25:40;-128.00;-1.00
70972;SHT30;58632;51.718;19.446;2022-07-03T22:28:08;-128.00;-1.00
70972;SHT30;58632;51.718;19.446;2022-07-03T22:30:35;-128.00;-1.00
70972;SHT30;58632;51.718;19.446;2022-07-03T22:33:02;-128.00;-1.00
70972;SHT30;58632;51.718;19.446;2022-07-03T22:35:30;-128.00;-1.00
70972;SHT30;58632;51.718;19.446;2022-07-03T22:37:57;-128.00;-1.00
70972;SHT30;58632;51.718;19.446;2022-07-03T22:40:24;-128.00;-1.00
70972;SHT30;58632;51.718;19.446;2022-07-03T22:42:53;-128.00;-1.00
70972;SHT30;58632;51.718;19.446;2022-07-03T22:45:21;-128.00;-1.00
70972;SHT30;58632;51.718;19.446;2022-07-03T22:47:50;-128.00;-1.00
70972;SHT30;58632;51.718;19.446;2022-07-03T22:50:17;-128.00;-1.00
70972;SHT30;58632;51.718;19.446;2022-07-03T22:52:44;-128.00;-1.00
70972;SHT30;58632;51.718;19.446;2022-07-03T22:55:11;-128.00;-1.00
70972;SHT30;58632;51.718;19.446;2022-07-03T22:57:39;-128.00;-1.00
70972;SHT30;58632;51.718;19.446;2022-07-03T23:00:08;-128.00;-1.00
70972;SHT30;58632;51.718;19.446;2022-07-03T23:02:38;-128.00;-1.00
70972;SHT30;58632;51.718;19.446;2022-07-03T23:05:06;-128.00;-1.00
70972;SHT30;58632;51.718;19.446;2022-07-03T23:07:33;-128.00;-1.00
70972;SHT30;58632;51.718;19.446;2022-07-03T23:10:00;-128.00;-1.00
70972;SHT30;58632;51.718;19.446;2022-07-03T23:12:28;-128.00;-1.00
70972;SHT30;58632;51.718;19.446;2022-07-03T23:14:55;-128.00;-1.00
70972;SHT30;58632;51.718;19.446;2022-07-03T23:17:22;-128.00;-1.00
70972;SHT30;58632;51.718;19.446;2022-07-03T23:19:49;-128.00;-1.00
70972;SHT30;58632;51.718;19.446;2022-07-03T23:22:16;-128.00;-1.00
70972;SHT30;58632;51.718;19.446;2022-07-03T23:24:43;-128.00;-1.00
70972;SHT30;58632;51.718;19.446;2022-07-03T23:27:10;-128.00;-1.00
70972;SHT30;58632;51.718;19.446;2022-07-03T23:29:37;-128.00;-1.00
70972;SHT30;58632;51.718;19.446;2022-07-03T23:32:06;-128.00;-1.00
70972;SHT30;58632;51.718;19.446;2022-07-03T23:34:33;-128.00;-1.00
70972;SHT30;58632;51.718;19.446;2022-07-03T23:37:00;-128.00;-1.00
70972;SHT30;58632;51.718;19.446;2022-07-03T23:39:27;-128.00;-1.00
70972;SHT30;58632;51.718;19.446;2022-07-03T23:41:54;-128.00;-1.00
70972;SHT30;58632;51.718;19.446;2022-07-03T23:44:21;-128.00;-1.00
70972;SHT30;58632;51.718;19.446;2022-07-03T23:46:48;-128.00;-1.00
70972;SHT30;58632;51.718;19.446;2022-07-03T23:49:16;-128.00;-1.00
70972;SHT30;58632;51.718;19.446;2022-07-03T23:52:01;-128.00;-1.00
70972;SHT30;58632;51.718;19.446;2022-07-03T23:54:28;-128.00;-1.00
70972;SHT30;58632;51.718;19.446;2022-07-03T23:56:55;-128.00;-1.00
70972;SHT30;58632;51.718;19.446;2022-07-03T23:59:23;-128.00;-1.00
